Carlos Alberto Russo

Scout - Estudiantes
23 Apr 2028
Sonntag
Verarbeitung

Persönlichkeit

Anpassungsfähigkeit (8) Ehrgeiz (6) Kontroverse (1) Loyalität (3) Druck (14) Professionalität (1) Fairness (16) Temperament (9)

Profil

Trainerstil Demokratisch
Lizenz Nationale A
Entschlossenheit 10
Menschenführung 5
Motivation 7
Disziplin 8
Arbeitszufriedenheit
100%
Ermüdung
0%
Rolle Scout
Gehalt 33.7K p/W
Vertrag 14.03.2029

Leistung

Verhalten Gut
Trainingseffektivität
59%
Spielerentwicklung
45%
Verletzungsprävention
50%
Taktische Umsetzung
70%

Letzte Ereignisse

Spieler begutachtet jetzt
Nahm an einer Scouting-Besprechung teil jetzt
Nahm an einer Scouting-Besprechung teil jetzt
Spieler begutachtet 7T her
Spieler begutachtet 7T her
Spieler begutachtet 7T her
Spieler begutachtet 7T her
Spieler begutachtet 7T her

Aktuell beobachtet

83
Spieler Verein Status Fähigkeit Vertrauen Beobachtet Zuletzt beobachtet Letzte Stimme
Carlos Vicente Birmingham Aktiv 166 / 145 40% 2 20.04.2028 -
Ismaïla Sarr Crystal Palace Aktiv 172 / 158 40% 1 20.04.2028 -
Gerard Martín Barcelona Aktiv 173 / 143 40% 2 19.04.2028 -
Tyrese Campbell Sheffield United Aktiv 138 / 130 40% 2 19.04.2028 -
Jan Bürger Northampton Town Aktiv 115 / 125 40% 2 17.04.2028 -
Ayden Heaven Portsmouth Aktiv 159 / 143 40% 1 17.04.2028 -
Angeliño AS Roma Aktiv 151 / 164 40% 1 16.04.2028 -
Germán Barbas Burgos Aktiv 113 / 127 40% 2 15.04.2028 -
Itumeleng Jali Spezia Aktiv 125 / 133 40% 2 15.04.2028 -
Vinícius Lira São Paulo Aktiv 122 / 120 40% 2 14.04.2028 -
Honest Ahanor Atalanta Aktiv 137 / 150 40% 5 14.04.2028 -
Allan Reading Aktiv 156 / 130 40% 1 13.04.2028 -
Marcus Tavernier Bournemouth Aktiv 156 / 141 40% 1 13.04.2028 -
Jorthy Mokio ADO Den Haag Aktiv 125 / 134 40% 4 12.04.2028 -
Harry Wilson Leeds United Aktiv 143 / 146 40% 3 12.04.2028 -
Martim Cunha Porto Aktiv 115 / 116 40% 2 12.04.2028 -
Jaden Philogene Wolverhampton Aktiv 137 / 138 40% 1 12.04.2028 -
Carlos Alcaraz Stoke City Aktiv 152 / 140 40% 2 11.04.2028 -
Adrián Liso Zaragoza Aktiv 143 / 145 40% 1 11.04.2028 -
Mikkel Damsgaard Brentford Aktiv 137 / 147 40% 1 08.04.2028 -
Adnan Nainggolan KV Oostende Aktiv 101 / 104 40% 4 07.04.2028 -
Chris Rigg Sunderland Aktiv 129 / 142 40% 1 07.04.2028 -
Tyreece Campbell Charlton Athletic Aktiv 130 / 129 40% 1 07.04.2028 -
Vinícius Júnior Paris Saint-Germain Aktiv 182 / 181 40% 1 05.04.2028 -
Enrique Clemente Las Palmas Aktiv 118 / 135 40% 2 02.04.2028 -
Fábio Carvalho Brentford Aktiv 140 / 148 40% 1 02.04.2028 -
Malick Fofana Sunderland Aktiv 162 / 149 40% 1 01.04.2028 -
Sorba Thomas Stoke City Aktiv 143 / 127 40% 1 01.04.2028 -
Jaidon Anthony Derby County Aktiv 153 / 128 40% 1 31.03.2028 -
Jesús Ricardo Angulo Atlas Aktiv 123 / 145 40% 1 31.03.2028 -
Matvey Bardachev Zenit Aktiv 119 / 118 40% 6 29.03.2028 -
Josh King Newcastle United Aktiv 160 / 156 40% 2 29.03.2028 -
Quilindschy Hartman Burnley Aktiv 140 / 160 40% 1 26.03.2028 -
Dango Ouattara Leicester City Aktiv 167 / 158 40% 1 26.03.2028 -
Samuel Edozie Southampton Aktiv 124 / 123 40% 1 25.03.2028 -
Chemsdine Talbi Sunderland Aktiv 142 / 162 40% 1 25.03.2028 -
Christos Mouzakitis Hull City Aktiv 120 / 143 40% 2 21.03.2028 -
Mattia Puzone Siracusa Aktiv 107 / 111 40% 1 21.03.2028 -
Victor Hernandez Santa Fe Aktiv 121 / 129 40% 1 20.03.2028 -
Josh Nichols Oldham Athletic Aktiv 118 / 125 40% 1 20.03.2028 -
Ben Gannon Doak Charlton Athletic Aktiv 137 / 154 40% 1 19.03.2028 -
Dmitry Pestryakov Krasnodar Aktiv 121 / 116 40% 3 17.03.2028 -
Andrey Ivlev Nizhniy Novgorod Aktiv 128 / 117 40% 3 17.03.2028 -
Bernardo Lima Porto Aktiv 109 / 121 40% 2 16.03.2028 -
Salvador Blopá Sporting CP Aktiv 122 / 122 40% 1 10.03.2028 -
Olivier Leroux Mouscron Aktiv 102 / 112 40% 2 06.03.2028 -
Riquelme Thompson-Jones Accrington Stanley Aktiv 121 / 106 40% 1 06.03.2028 -
Ivan Giraldo Valencia Aktiv 122 / 129 40% 2 27.02.2028 -
Amine Boukamir Charleroi Aktiv 109 / 108 40% 2 19.02.2028 -
Josh Acheampong Everton Aktiv 136 / 155 40% 1 17.02.2028 -
Archie Gray Southampton Aktiv 136 / 159 40% 2 14.02.2028 -
Jorge Moreno Athletic Bilbao Aktiv 122 / 124 40% 1 09.02.2028 -
Santiago Segovia Rosario Central Aktiv 110 / 115 55% 1 07.12.2027 -
Ignacio Rodríguez Racing Club Aktiv 124 / 122 40% 1 30.11.2027 -
Ruben Ramos LA Galaxy Aktiv 112 / 115 40% 2 29.11.2027 -
Alex Verón Vélez Aktiv 116 / 119 40% 1 29.11.2027 Mehr Infos nötig
Agustín De la Cuesta Racing Aktiv 119 / 117 40% 3 28.11.2027 -
Jeremías Merlo Gimnasia La Plata Aktiv 128 / 119 40% 1 24.11.2027 -
Juan Rodríguez Cerro Largo Aktiv 86 / 102 40% 2 13.11.2027 -
Francisco Marchant Colo-Colo Aktiv 92 / 105 40% 1 10.11.2027 -
Matías Arias Vélez Aktiv 117 / 116 40% 1 10.11.2027 -
Sebastián Muñoz GIF Sundsvall Aktiv 84 / 101 40% 1 09.11.2027 -
Emmanuel Ndubueze Shooting Stars Aktiv 77 / 94 40% 1 30.10.2027 -
Francisco Triver River Plate Aktiv 89 / 105 40% 1 30.10.2027 -
Hassan Beja AFC Leopards Aktiv 88 / 98 40% 2 29.10.2027 -
Piero Cari Alianza Lima Aktiv 108 / 114 40% 1 25.10.2027 -
Chimobi Igwilo Rangers International Aktiv 104 / 98 40% 1 22.10.2027 -
Álex Berenguer Lokomotiv Moscow Aktiv 164 / 153 40% 1 31.05.2027 -
Ignacio Vittar Central Córdoba SdE Aktiv 91 / 104 55% 1 21.12.2026 -
Valentín Gómez Betis Aktiv 128 / 132 40% 1 30.11.2026 -
Aidan Morris Middlesbrough Aktiv 132 / 137 40% 1 30.11.2026 -
Lewis Gibson Preston Aktiv 111 / 130 40% 1 26.11.2026 -
Jacob Greaves Ipswich Town Aktiv 149 / 130 40% 2 19.11.2026 -
Brooke Norton-Cuffy Hull City Aktiv 123 / 126 40% 2 19.11.2026 -
Ayrton Costa Boca Juniors Aktiv 124 / 127 40% 1 24.10.2026 -
Ethan Ampadu Leeds United Aktiv 130 / 132 40% 1 24.10.2026 -
Manu Morlanes Mallorca Aktiv 151 / 135 40% 2 17.10.2026 -
Edoardo Bove Watford Aktiv 111 / 118 40% 1 16.10.2026 -
Luke McNally Bristol City Aktiv 124 / 127 40% 1 12.10.2026 -
Erik Lira Cruz Azul Aktiv 141 / 133 40% 1 06.10.2026 -
Ander Guevara Racing Genk Aktiv 135 / 125 40% 1 12.08.2026 -
Nico Elvedi Leeds United Aktiv 143 / 126 40% 1 11.08.2026 -
Joe Gomez Liverpool Aktiv 141 / 162 40% 1 01.08.2026 -